Time;durP1;ratioP1;P1;durP2;ratioP2;P2;SDS_P1;SDS_P2;PMS_P1;PMS_P2;Temp;Humidity;BMP_temperature;BMP_pressure;BME280_temperature;BME280_humidity;BME280_pressure;Samples;Min_cycle;Max_cycle;Signal;HPM_P1;HPM_P2
2024/01/19 00:00:16;;;;;;;18.45;3.03;;;-1.30;99.90;;;;;;5074973;28;20107;-80
2024/01/19 00:02:42;;;;;;;8.70;2.83;;;-1.30;99.90;;;;;;5080292;28;20041;-80
2024/01/19 00:05:08;;;;;;;13.73;4.57;;;-1.30;99.90;;;;;;5090479;28;20425;-80
2024/01/19 00:07:33;;;;;;;6.45;2.63;;;-1.30;99.90;;;;;;5096168;28;20076;-80
2024/01/19 00:09:59;;;;;;;6.78;2.55;;;-1.30;99.90;;;;;;5074912;28;20095;-80
2024/01/19 00:12:24;;;;;;;10.13;3.00;;;-1.30;99.90;;;;;;5090078;28;20047;-80
2024/01/19 00:14:50;;;;;;;9.93;2.92;;;-1.30;99.90;;;;;;5076185;28;20024;-80
2024/01/19 00:17:15;;;;;;;9.38;2.72;;;-1.30;99.90;;;;;;5096118;28;20053;-80
2024/01/19 00:19:41;;;;;;;6.88;3.33;;;-1.30;99.90;;;;;;5078410;28;20118;-81
2024/01/19 00:22:06;;;;;;;4.15;2.33;;;-1.30;99.90;;;;;;5092466;28;20126;-80
2024/01/19 00:24:34;;;;;;;11.30;3.03;;;-1.30;99.90;;;;;;5085365;28;20033;-80
2024/01/19 00:26:59;;;;;;;8.43;3.47;;;-1.30;99.90;;;;;;5086617;28;20066;-80
2024/01/19 00:29:25;;;;;;;10.73;3.22;;;-1.30;99.90;;;;;;5084330;28;20051;-79
2024/01/19 00:31:50;;;;;;;14.75;3.85;;;-1.40;99.90;;;;;;5071407;28;20508;-81
2024/01/19 00:34:16;;;;;;;6.13;3.20;;;-1.30;99.90;;;;;;5099517;28;20532;-79
2024/01/19 00:36:42;;;;;;;9.00;2.67;;;-1.30;99.90;;;;;;5088796;28;20039;-80
2024/01/19 00:39:08;;;;;;;5.78;2.92;;;-1.30;99.90;;;;;;5077282;28;20025;-80
2024/01/19 00:41:35;;;;;;;20.38;3.53;;;-1.30;99.90;;;;;;5079041;28;20035;-80
2024/01/19 00:44:00;;;;;;;9.10;3.97;;;-1.30;99.90;;;;;;5069638;28;20063;-79
2024/01/19 00:46:28;;;;;;;14.20;3.25;;;-1.30;99.90;;;;;;5083962;28;20095;-80
2024/01/19 00:48:53;;;;;;;16.92;3.95;;;-1.20;99.90;;;;;;5069113;28;20529;-80
2024/01/19 00:51:19;;;;;;;19.70;3.85;;;-1.10;99.90;;;;;;5085176;28;20099;-79
2024/01/19 00:53:45;;;;;;;8.15;3.58;;;-1.10;99.90;;;;;;5097587;28;20039;-81
2024/01/19 00:56:10;;;;;;;10.38;3.50;;;-1.00;99.90;;;;;;5102927;28;20476;-80
2024/01/19 00:58:37;;;;;;;20.15;3.60;;;-1.00;99.90;;;;;;5098656;28;20391;-79
2024/01/19 01:01:04;;;;;;;12.68;3.38;;;-0.90;99.90;;;;;;5101359;28;20028;-80
2024/01/19 01:03:30;;;;;;;5.05;3.28;;;-0.90;99.90;;;;;;5095619;28;20044;-79
2024/01/19 01:05:56;;;;;;;7.97;3.75;;;-0.90;99.90;;;;;;5086027;28;20082;-80
2024/01/19 01:08:23;;;;;;;21.95;3.95;;;-0.90;99.90;;;;;;5080353;28;20127;-80
2024/01/19 01:10:49;;;;;;;8.20;3.03;;;-0.90;99.90;;;;;;5091758;28;20149;-80
2024/01/19 01:13:15;;;;;;;15.25;3.90;;;-0.80;99.90;;;;;;5093256;28;20027;-79
2024/01/19 01:15:41;;;;;;;4.68;2.90;;;-0.80;99.90;;;;;;5074354;28;20089;-79
2024/01/19 01:18:06;;;;;;;19.98;3.88;;;-0.80;99.90;;;;;;5074646;28;20019;-79
2024/01/19 01:20:32;;;;;;;9.07;3.28;;;-0.80;99.90;;;;;;5083228;28;20028;-80
2024/01/19 01:22:58;;;;;;;21.67;3.88;;;-0.90;99.90;;;;;;5078484;28;20040;-79
2024/01/19 01:25:26;;;;;;;5.20;3.00;;;-0.80;99.90;;;;;;5097322;28;20047;-80
2024/01/19 01:27:52;;;;;;;8.73;3.35;;;-0.80;99.90;;;;;;5088047;28;20058;-79
2024/01/19 01:30:18;;;;;;;11.10;4.72;;;-0.80;99.90;;;;;;5085751;28;20061;-80
2024/01/19 01:32:43;;;;;;;11.40;4.03;;;-0.90;99.90;;;;;;5090802;28;20023;-80
2024/01/19 01:35:09;;;;;;;11.27;3.67;;;-1.00;99.90;;;;;;5089450;28;20107;-79
2024/01/19 01:37:34;;;;;;;6.90;3.78;;;-1.00;99.90;;;;;;5078529;28;20422;-79
2024/01/19 01:40:00;;;;;;;8.48;3.88;;;-1.10;99.90;;;;;;5083793;28;20429;-79
2024/01/19 01:42:26;;;;;;;13.23;4.47;;;-1.00;99.90;;;;;;5107065;28;20036;-79
2024/01/19 01:44:51;;;;;;;9.43;4.18;;;-1.10;99.90;;;;;;5083228;28;20051;-78
2024/01/19 01:47:17;;;;;;;10.93;3.83;;;-1.10;99.90;;;;;;5095596;28;20107;-81
2024/01/19 01:49:43;;;;;;;10.77;4.45;;;-1.10;99.90;;;;;;5079996;28;20027;-80
2024/01/19 01:52:10;;;;;;;9.15;3.80;;;-1.20;99.90;;;;;;5097264;28;20046;-82
2024/01/19 01:54:36;;;;;;;12.85;4.57;;;-1.20;99.90;;;;;;5097724;28;20110;-82
2024/01/19 01:57:02;;;;;;;10.70;4.28;;;-1.10;99.90;;;;;;5089597;28;20534;-80
2024/01/19 01:59:29;;;;;;;13.60;6.82;;;-1.20;99.90;;;;;;5074255;28;20025;-81
2024/01/19 02:01:55;;;;;;;20.70;5.28;;;-1.20;99.90;;;;;;5093509;28;20039;-81
2024/01/19 02:04:21;;;;;;;8.75;3.70;;;-1.20;99.90;;;;;;5070923;28;20024;-82
2024/01/19 02:06:47;;;;;;;12.27;4.82;;;-1.20;99.90;;;;;;5094864;28;20052;-81
2024/01/19 02:09:13;;;;;;;12.57;4.07;;;-1.10;99.90;;;;;;5095711;28;20101;-81
2024/01/19 02:11:39;;;;;;;10.15;3.97;;;-1.10;99.90;;;;;;5089274;28;20052;-81
2024/01/19 02:14:05;;;;;;;15.15;4.30;;;-1.00;99.90;;;;;;5096363;28;20430;-81
2024/01/19 02:16:32;;;;;;;8.98;4.07;;;-1.00;99.90;;;;;;5091283;28;20088;-81
2024/01/19 02:18:57;;;;;;;11.90;3.92;;;-1.00;99.90;;;;;;5084672;28;20103;-81
2024/01/19 02:21:23;;;;;;;12.52;3.80;;;-1.00;99.90;;;;;;5073685;28;20056;-81
2024/01/19 02:24:11;;;;;;;19.65;4.07;;;-1.00;99.90;;;;;;5094309;28;21022;-81
2024/01/19 02:26:38;;;;;;;18.33;4.38;;;-1.00;99.90;;;;;;5067369;28;20063;-81
2024/01/19 02:29:04;;;;;;;11.52;4.00;;;-0.90;99.90;;;;;;5086694;28;20034;-80
2024/01/19 02:31:30;;;;;;;11.52;3.97;;;-0.90;99.90;;;;;;5079996;28;20028;-79
2024/01/19 02:33:56;;;;;;;8.50;3.42;;;-0.90;99.90;;;;;;5088792;28;20039;-78
2024/01/19 02:36:21;;;;;;;8.88;3.17;;;-0.80;99.90;;;;;;5090129;28;20492;-79
2024/01/19 02:38:47;;;;;;;12.38;3.53;;;-0.70;99.90;;;;;;5079291;28;20028;-79
2024/01/19 02:41:15;;;;;;;12.88;3.42;;;-0.60;99.90;;;;;;5076598;28;20025;-78
2024/01/19 02:43:42;;;;;;;22.38;4.95;;;-0.60;99.90;;;;;;5068364;28;20082;-78
2024/01/19 02:46:09;;;;;;;6.47;3.15;;;-0.40;99.90;;;;;;5073529;28;20076;-79
2024/01/19 02:48:34;;;;;;;12.80;3.65;;;-0.50;99.90;;;;;;5098325;28;20019;-79
2024/01/19 02:51:00;;;;;;;4.43;2.42;;;-0.40;99.90;;;;;;5098253;28;20383;-79
2024/01/19 02:53:26;;;;;;;12.75;3.17;;;-0.40;99.90;;;;;;5088586;28;20324;-78
2024/01/19 02:55:51;;;;;;;8.70;3.58;;;-0.40;99.90;;;;;;5098506;28;20020;-79
2024/01/19 02:58:17;;;;;;;13.25;3.22;;;-0.30;99.90;;;;;;5084654;28;20590;-76
2024/01/19 03:00:42;;;;;;;9.85;3.13;;;-0.30;99.90;;;;;;5061100;28;20069;-79
2024/01/19 03:03:10;;;;;;;8.75;3.70;;;-0.30;99.90;;;;;;5079222;28;20111;-79
2024/01/19 03:05:35;;;;;;;10.85;3.85;;;-0.40;99.90;;;;;;5083925;28;20115;-79
2024/01/19 03:08:01;;;;;;;11.65;4.97;;;-0.40;99.90;;;;;;5077548;28;20476;-78
2024/01/19 03:10:27;;;;;;;13.68;4.47;;;-0.40;99.90;;;;;;5070611;28;20419;-78
2024/01/19 03:12:53;;;;;;;12.63;4.32;;;-0.50;99.90;;;;;;5081138;28;20114;-78
2024/01/19 03:15:18;;;;;;;5.97;3.70;;;-0.50;99.90;;;;;;5081965;28;20028;-80
2024/01/19 03:17:44;;;;;;;7.75;3.42;;;-0.50;99.90;;;;;;5081075;28;20024;-78
2024/01/19 03:20:10;;;;;;;14.85;4.63;;;-0.50;99.90;;;;;;5090760;28;20407;-79
2024/01/19 03:22:36;;;;;;;15.50;4.80;;;-0.50;99.90;;;;;;5094290;28;20051;-79
2024/01/19 03:25:02;;;;;;;8.50;3.88;;;-0.50;99.90;;;;;;5104009;28;20176;-78
2024/01/19 03:27:28;;;;;;;12.23;4.63;;;-0.50;99.90;;;;;;5091685;28;20377;-78
2024/01/19 03:29:55;;;;;;;13.07;4.70;;;-0.60;99.90;;;;;;5082111;28;20055;-78
2024/01/19 03:32:20;;;;;;;12.43;4.53;;;-0.60;99.90;;;;;;5086582;28;20469;-79
2024/01/19 03:34:46;;;;;;;13.27;5.10;;;-0.60;99.90;;;;;;5085848;28;20031;-79
2024/01/19 03:37:12;;;;;;;14.13;5.15;;;-0.70;99.90;;;;;;5103306;28;20032;-79
2024/01/19 03:39:40;;;;;;;11.27;5.50;;;-0.80;99.90;;;;;;5099488;28;20076;-81
2024/01/19 03:42:06;;;;;;;11.35;4.15;;;-0.80;99.90;;;;;;5083495;28;20485;-78
2024/01/19 03:44:31;;;;;;;9.35;5.20;;;-0.80;99.90;;;;;;5074117;28;20030;-80
2024/01/19 03:46:59;;;;;;;20.55;6.53;;;-0.70;99.90;;;;;;5080816;28;20021;-78
2024/01/19 03:49:25;;;;;;;22.48;7.20;;;-0.80;99.90;;;;;;5083977;28;20038;-78
2024/01/19 03:52:04;;;;;;;10.90;5.47;;;-0.80;99.90;;;;;;5075973;28;20032;-79
2024/01/19 03:54:30;;;;;;;11.60;5.25;;;-0.80;99.90;;;;;;5085424;28;20051;-79
2024/01/19 03:57:00;;;;;;;9.73;4.57;;;-0.80;99.90;;;;;;5082236;28;20030;-79
2024/01/19 03:59:26;;;;;;;7.60;4.55;;;-0.80;99.90;;;;;;5070017;28;20434;-79
2024/01/19 04:01:52;;;;;;;11.10;5.13;;;-0.70;99.90;;;;;;5077637;28;20054;-81
2024/01/19 04:04:18;;;;;;;7.50;4.20;;;-0.60;99.90;;;;;;5089205;28;20017;-78
2024/01/19 04:06:43;;;;;;;21.55;5.88;;;-0.50;99.90;;;;;;5088289;28;20478;-80
2024/01/19 04:09:09;;;;;;;12.18;4.63;;;-0.50;99.90;;;;;;5075071;28;20462;-78
2024/01/19 04:11:36;;;;;;;12.45;3.67;;;-0.50;99.90;;;;;;5070691;28;20024;-79
2024/01/19 04:14:02;;;;;;;14.50;5.03;;;-0.40;99.90;;;;;;5076559;28;20388;-78
2024/01/19 04:16:27;;;;;;;10.32;4.30;;;-0.40;99.90;;;;;;5072921;28;20035;-79
2024/01/19 04:18:53;;;;;;;9.25;3.72;;;-0.40;99.90;;;;;;5080499;28;20077;-79
2024/01/19 04:21:21;;;;;;;15.25;3.92;;;-0.40;99.90;;;;;;5079783;28;20050;-80
2024/01/19 04:23:48;;;;;;;12.65;4.50;;;-0.40;99.90;;;;;;5071648;28;20040;-78
2024/01/19 04:26:14;;;;;;;16.70;4.97;;;-0.40;99.90;;;;;;5083797;28;20055;-79
2024/01/19 04:28:39;;;;;;;7.10;4.22;;;-0.40;99.90;;;;;;5085718;28;20064;-78
2024/01/19 04:31:08;;;;;;;12.57;4.18;;;-0.40;99.90;;;;;;5071220;28;20027;-79
2024/01/19 04:33:34;;;;;;;17.25;4.80;;;-0.40;99.90;;;;;;5073075;28;20487;-78
2024/01/19 04:35:59;;;;;;;4.15;3.75;;;-0.40;99.90;;;;;;5077554;28;20067;-85
2024/01/19 04:38:25;;;;;;;7.70;4.50;;;-0.40;99.90;;;;;;5086599;28;20105;-78
2024/01/19 04:40:50;;;;;;;12.68;4.68;;;-0.40;99.90;;;;;;5069338;28;20036;-79
2024/01/19 04:43:16;;;;;;;19.10;4.82;;;-0.40;99.90;;;;;;5075162;28;20383;-80
2024/01/19 04:45:45;;;;;;;8.40;4.72;;;-0.40;99.90;;;;;;5077979;28;20030;-79
2024/01/19 04:48:10;;;;;;;10.77;5.20;;;-0.50;99.90;;;;;;5073667;28;20039;-78
2024/01/19 04:50:38;;;;;;;6.35;3.90;;;-0.50;99.90;;;;;;5071282;28;20024;-79
2024/01/19 04:53:04;;;;;;;8.52;4.15;;;-0.60;99.90;;;;;;5076667;28;20457;-80
2024/01/19 04:55:30;;;;;;;17.83;5.32;;;-0.60;99.90;;;;;;5071963;28;20073;-79
2024/01/19 04:57:55;;;;;;;11.05;4.93;;;-0.60;99.90;;;;;;5078142;28;20033;-80
2024/01/19 05:00:22;;;;;;;9.93;5.68;;;-0.60;99.90;;;;;;5077196;28;20027;-79
2024/01/19 05:02:49;;;;;;;11.70;5.50;;;-0.60;99.90;;;;;;5075291;28;20037;-79
2024/01/19 05:05:15;;;;;;;9.98;5.30;;;-0.60;99.90;;;;;;5068553;28;20507;-80
2024/01/19 05:07:41;;;;;;;10.02;5.50;;;-0.60;99.90;;;;;;5076450;28;20464;-79
2024/01/19 05:10:07;;;;;;;19.48;7.28;;;-0.60;99.90;;;;;;5075630;28;20027;-79
2024/01/19 05:12:35;;;;;;;15.30;6.47;;;-0.70;99.90;;;;;;5076542;28;20035;-78
2024/01/19 05:15:01;;;;;;;13.55;6.30;;;-0.70;99.90;;;;;;5067328;28;20037;-79
2024/01/19 05:17:27;;;;;;;12.93;6.63;;;-0.70;99.90;;;;;;5079521;28;20032;-79
2024/01/19 05:19:52;;;;;;;19.13;6.40;;;-0.70;99.90;;;;;;5075220;28;20118;-79
2024/01/19 05:22:18;;;;;;;19.92;6.88;;;-0.70;99.90;;;;;;5073742;28;20086;-80
2024/01/19 05:24:44;;;;;;;22.73;6.80;;;-0.70;99.90;;;;;;5073222;28;20028;-80
2024/01/19 05:27:10;;;;;;;20.50;6.57;;;-0.70;99.90;;;;;;5072325;28;20115;-81
2024/01/19 05:29:36;;;;;;;15.80;7.60;;;-0.70;99.90;;;;;;5072211;28;20031;-79
2024/01/19 05:32:02;;;;;;;14.07;7.22;;;-0.70;99.90;;;;;;5079245;28;20066;-78
2024/01/19 05:34:28;;;;;;;21.20;6.93;;;-0.80;99.90;;;;;;5077262;28;20038;-78
2024/01/19 05:36:54;;;;;;;19.52;10.07;;;-0.80;99.90;;;;;;5074891;28;20047;-77
2024/01/19 05:39:20;;;;;;;16.25;7.03;;;-0.80;99.90;;;;;;5073768;28;20051;-79
2024/01/19 05:41:46;;;;;;;27.10;6.95;;;-0.80;99.90;;;;;;5059475;28;20530;-80
2024/01/19 05:44:11;;;;;;;17.20;6.88;;;-0.80;99.90;;;;;;5081422;28;20066;-80
2024/01/19 05:46:37;;;;;;;11.80;6.25;;;-0.70;99.90;;;;;;5071971;28;20411;-77
2024/01/19 05:49:03;;;;;;;22.42;7.75;;;-0.70;99.90;;;;;;5065034;28;20047;-79
2024/01/19 05:51:28;;;;;;;15.05;5.90;;;-0.70;99.90;;;;;;5065282;28;20029;-84
2024/01/19 05:53:54;;;;;;;16.80;5.78;;;-0.70;99.90;;;;;;5073380;28;20395;-77
2024/01/19 05:56:20;;;;;;;9.98;6.38;;;-0.70;99.90;;;;;;5056907;28;20032;-78
2024/01/19 05:58:45;;;;;;;15.55;7.30;;;-0.70;99.90;;;;;;5086476;28;20039;-81
2024/01/19 06:01:11;;;;;;;20.58;9.57;;;-0.70;99.90;;;;;;5076265;28;20025;-79
2024/01/19 06:03:37;;;;;;;21.63;9.82;;;-0.70;99.90;;;;;;5084472;28;20040;-78
2024/01/19 06:06:04;;;;;;;25.42;8.95;;;-0.70;99.90;;;;;;5079854;28;20032;-78
2024/01/19 06:08:30;;;;;;;22.40;7.85;;;-0.70;99.90;;;;;;5091817;28;20041;-77
2024/01/19 06:10:56;;;;;;;18.80;7.60;;;-0.70;99.90;;;;;;5081609;28;20033;-78
2024/01/19 06:13:22;;;;;;;15.00;6.63;;;-0.60;99.90;;;;;;5076731;28;20055;-78
2024/01/19 06:15:51;;;;;;;11.32;5.97;;;-0.60;99.90;;;;;;5097574;28;20527;-77
2024/01/19 06:18:17;;;;;;;13.82;6.15;;;-0.60;99.90;;;;;;5089893;28;20028;-80
2024/01/19 06:20:43;;;;;;;20.38;6.85;;;-0.60;99.90;;;;;;5074165;28;20103;-80
2024/01/19 06:23:12;;;;;;;20.52;6.07;;;-0.60;99.90;;;;;;5072245;28;20061;-80
2024/01/19 06:25:38;;;;;;;18.92;6.07;;;-0.60;99.90;;;;;;5077245;28;20026;-77
2024/01/19 06:28:06;;;;;;;18.00;6.03;;;-0.60;99.90;;;;;;5075468;28;20028;-80
2024/01/19 06:30:32;;;;;;;10.98;5.90;;;-0.60;99.90;;;;;;5093245;28;20116;-78
2024/01/19 06:32:59;;;;;;;16.85;6.00;;;-0.60;99.90;;;;;;5069966;28;20036;-79
2024/01/19 06:35:25;;;;;;;18.27;6.75;;;-0.50;99.90;;;;;;5066267;28;20495;-78
2024/01/19 06:37:50;;;;;;;16.55;7.32;;;-0.50;99.90;;;;;;5079215;28;20025;-81
2024/01/19 06:40:16;;;;;;;18.88;8.02;;;-0.50;99.90;;;;;;5092076;28;20028;-78
2024/01/19 06:42:45;;;;;;;18.80;7.47;;;-0.50;99.90;;;;;;5076454;28;20041;-78
2024/01/19 06:45:11;;;;;;;22.77;7.72;;;-0.50;99.90;;;;;;5088761;28;20027;-78
2024/01/19 06:47:37;;;;;;;23.25;6.97;;;-0.60;99.90;;;;;;5091805;28;20050;-77
2024/01/19 06:50:03;;;;;;;15.38;6.50;;;-0.60;99.90;;;;;;5080657;28;20270;-81
2024/01/19 06:52:29;;;;;;;26.20;7.68;;;-0.60;99.90;;;;;;5086308;28;20477;-81
2024/01/19 06:54:55;;;;;;;16.08;6.53;;;-0.60;99.90;;;;;;5092417;28;20122;-78
2024/01/19 06:57:20;;;;;;;17.17;8.10;;;-0.60;99.90;;;;;;5083196;28;20031;-79
2024/01/19 06:59:46;;;;;;;17.10;8.68;;;-0.70;99.90;;;;;;5098603;28;20475;-77
2024/01/19 07:02:12;;;;;;;19.10;7.75;;;-0.70;99.90;;;;;;5082855;28;20049;-78
2024/01/19 07:04:37;;;;;;;19.63;7.90;;;-0.70;99.90;;;;;;5087796;28;20260;-77
2024/01/19 07:07:03;;;;;;;15.93;7.25;;;-0.70;99.90;;;;;;5093394;28;20031;-79
2024/01/19 07:09:31;;;;;;;14.32;7.22;;;-0.70;99.90;;;;;;5066526;28;20023;-77
2024/01/19 07:11:57;;;;;;;15.88;7.68;;;-0.70;99.90;;;;;;5094193;28;20031;-77
2024/01/19 07:14:24;;;;;;;17.08;7.00;;;-0.70;99.90;;;;;;5062497;28;20407;-81
2024/01/19 07:16:50;;;;;;;20.52;6.32;;;-0.70;99.90;;;;;;5084922;28;20070;-79
2024/01/19 07:19:16;;;;;;;14.38;7.32;;;-0.60;99.90;;;;;;5078587;28;20468;-79
2024/01/19 07:21:45;;;;;;;19.60;7.18;;;-0.60;99.90;;;;;;5103483;28;20051;-80
2024/01/19 07:24:12;;;;;;;19.38;7.60;;;-0.50;99.90;;;;;;5081508;28;20086;-78
2024/01/19 07:26:38;;;;;;;12.00;6.53;;;-0.60;99.90;;;;;;5076748;28;20027;-78
2024/01/19 07:29:06;;;;;;;15.30;6.53;;;-0.60;99.90;;;;;;5096174;28;20055;-80
2024/01/19 07:31:35;;;;;;;16.15;6.47;;;-0.60;99.90;;;;;;5080254;28;20469;-79
2024/01/19 07:34:01;;;;;;;16.42;7.32;;;-0.60;99.90;;;;;;5082250;28;20391;-82
2024/01/19 07:36:27;;;;;;;21.17;8.35;;;-0.60;99.90;;;;;;5079692;28;20111;-81
2024/01/19 07:38:54;;;;;;;10.35;6.30;;;-0.50;99.90;;;;;;5054807;28;20115;-80
2024/01/19 07:41:19;;;;;;;24.90;7.65;;;-0.60;99.90;;;;;;5081200;28;20016;-78
2024/01/19 07:43:45;;;;;;;16.17;7.78;;;-0.60;99.90;;;;;;5085956;28;20396;-79
2024/01/19 07:46:16;;;;;;;25.13;7.78;;;-0.60;99.90;;;;;;5089324;28;20059;-78
2024/01/19 07:48:42;;;;;;;16.63;7.32;;;-0.60;99.90;;;;;;5079183;28;20491;-81
2024/01/19 07:51:09;;;;;;;20.85;7.97;;;-0.70;99.90;;;;;;5092860;28;20107;-81
2024/01/19 07:53:35;;;;;;;24.92;7.35;;;-0.70;99.90;;;;;;5060805;28;20039;-78
2024/01/19 07:56:00;;;;;;;15.98;7.43;;;-0.60;99.90;;;;;;5055563;28;20028;-77
2024/01/19 07:58:27;;;;;;;17.10;7.80;;;-0.60;99.90;;;;;;5043864;28;20390;-78
2024/01/19 08:00:53;;;;;;;19.08;7.45;;;-0.60;99.90;;;;;;5066372;28;20423;-79
2024/01/19 08:03:19;;;;;;;22.65;9.60;;;-0.60;99.90;;;;;;5054042;28;20041;-78
2024/01/19 08:05:45;;;;;;;20.40;9.60;;;-0.60;99.90;;;;;;5043979;28;20393;-77
2024/01/19 08:08:11;;;;;;;23.73;8.50;;;-0.60;99.90;;;;;;5052966;28;20065;-83
2024/01/19 08:10:37;;;;;;;21.60;9.45;;;-0.60;99.90;;;;;;5066288;28;20413;-79
2024/01/19 08:13:03;;;;;;;18.70;9.20;;;-0.70;99.90;;;;;;5050218;28;20025;-78
2024/01/19 08:15:28;;;;;;;25.45;9.15;;;-0.60;99.90;;;;;;5053000;28;20090;-78
2024/01/19 08:17:54;;;;;;;27.75;10.55;;;-0.60;99.90;;;;;;5065257;28;20041;-77
2024/01/19 08:20:21;;;;;;;21.88;9.98;;;-0.60;99.90;;;;;;5058213;28;20184;-78
2024/01/19 08:22:47;;;;;;;23.05;11.23;;;-0.60;99.90;;;;;;5073912;28;20071;-79
2024/01/19 08:25:13;;;;;;;24.00;10.40;;;-0.60;99.90;;;;;;5065382;28;20028;-81
2024/01/19 08:27:47;;;;;;;23.48;12.02;;;-0.60;99.90;;;;;;5085441;28;20024;-77
2024/01/19 08:30:13;;;;;;;29.55;11.45;;;-0.70;99.90;;;;;;5073734;28;20471;-78
2024/01/19 08:32:39;;;;;;;23.75;10.68;;;-0.60;99.90;;;;;;5079328;28;20119;-78
2024/01/19 08:35:08;;;;;;;22.60;10.40;;;-0.50;99.90;;;;;;5081663;28;20111;-78
2024/01/19 08:37:38;;;;;;;25.98;9.90;;;-0.50;99.90;;;;;;5086883;28;20392;-81
2024/01/19 08:40:08;;;;;;;31.85;10.13;;;-0.50;99.90;;;;;;5071214;28;20028;-77
2024/01/19 08:42:34;;;;;;;18.60;9.25;;;-0.50;99.90;;;;;;5084396;28;20420;-81
2024/01/19 08:45:00;;;;;;;18.98;10.95;;;-0.50;99.90;;;;;;5085888;28;20038;-83
2024/01/19 08:47:26;;;;;;;23.48;10.98;;;-0.50;99.90;;;;;;5087959;28;20024;-82
2024/01/19 08:49:52;;;;;;;31.02;10.93;;;-0.50;99.90;;;;;;5083864;28;20063;-77
2024/01/19 08:52:17;;;;;;;23.33;10.23;;;-0.50;99.90;;;;;;5074568;28;20060;-78
2024/01/19 08:54:44;;;;;;;27.30;11.13;;;-0.40;99.90;;;;;;5061590;28;20816;-77
2024/01/19 08:57:10;;;;;;;23.00;10.18;;;-0.40;99.90;;;;;;5077667;28;20036;-77
2024/01/19 08:59:35;;;;;;;21.80;9.57;;;-0.40;99.90;;;;;;5076806;28;20036;-79
2024/01/19 09:02:01;;;;;;;19.70;10.02;;;-0.30;99.90;;;;;;5067855;28;20731;-79
2024/01/19 09:04:27;;;;;;;25.35;11.18;;;-0.30;99.90;;;;;;5060701;28;20024;-79
2024/01/19 09:06:57;;;;;;;26.30;9.18;;;-0.20;99.90;;;;;;5076214;28;20054;-80
2024/01/19 09:09:26;;;;;;;22.23;9.60;;;-0.20;99.90;;;;;;5067691;28;20120;-79
2024/01/19 09:11:51;;;;;;;22.38;10.32;;;-0.20;99.90;;;;;;5071351;28;20024;-79
2024/01/19 09:14:18;;;;;;;19.48;10.02;;;-0.20;99.90;;;;;;5076954;28;20464;-80
2024/01/19 09:16:44;;;;;;;33.10;15.18;;;-0.10;99.90;;;;;;5058309;28;20089;-79
2024/01/19 09:19:11;;;;;;;30.40;11.85;;;-0.10;99.90;;;;;;5054941;28;20033;-80
2024/01/19 09:21:39;;;;;;;47.03;16.67;;;-0.20;99.90;;;;;;5055501;28;20075;-79
2024/01/19 09:24:05;;;;;;;49.25;19.38;;;-0.10;99.90;;;;;;5057690;28;20435;-79
2024/01/19 09:26:31;;;;;;;61.70;27.77;;;-0.10;99.90;;;;;;5049927;28;20029;-80
2024/01/19 09:28:56;;;;;;;29.13;11.70;;;-0.10;99.90;;;;;;5043938;28;20020;-80
2024/01/19 09:31:22;;;;;;;31.90;12.00;;;-0.10;99.90;;;;;;5067455;28;20127;-78
2024/01/19 09:33:50;;;;;;;41.10;16.98;;;-0.20;99.90;;;;;;5052090;28;20519;-79
2024/01/19 09:36:16;;;;;;;33.50;12.88;;;-0.10;99.90;;;;;;5059843;28;20029;-78
2024/01/19 09:38:45;;;;;;;36.00;15.40;;;-0.10;99.90;;;;;;5065803;28;20036;-78
2024/01/19 09:41:29;;;;;;;35.83;13.00;;;0.00;99.90;;;;;;5073685;28;20124;-78
2024/01/19 09:43:58;;;;;;;32.80;13.75;;;0.00;99.90;;;;;;5066610;28;20033;-80
2024/01/19 09:46:30;;;;;;;26.88;11.63;;;0.00;99.90;;;;;;5069537;28;20033;-79
2024/01/19 09:49:06;;;;;;;23.52;11.23;;;0.10;99.90;;;;;;5063868;28;20110;-78
2024/01/19 09:51:56;;;;;;;24.42;11.45;;;0.00;99.90;;;;;;5046467;28;20024;-78
2024/01/19 09:54:33;;;;;;;31.48;15.85;;;0.10;99.90;;;;;;5045961;28;20037;-78
2024/01/19 09:57:00;;;;;;;22.38;11.85;;;0.10;99.90;;;;;;5069364;28;20491;-78
2024/01/19 09:59:32;;;;;;;21.42;10.38;;;0.10;99.90;;;;;;5049134;28;20028;-83
2024/01/19 10:01:59;;;;;;;19.17;9.85;;;0.20;99.90;;;;;;5054782;28;20045;-78
2024/01/19 10:04:26;;;;;;;22.55;10.75;;;0.20;99.90;;;;;;5072781;28;20031;-80
2024/01/19 10:06:53;;;;;;;24.13;11.00;;;0.20;99.90;;;;;;5054419;28;20037;-80
2024/01/19 10:09:20;;;;;;;20.90;11.30;;;0.20;99.90;;;;;;5062239;28;20036;-78
2024/01/19 10:11:53;;;;;;;23.33;11.43;;;0.20;99.90;;;;;;5071574;28;20032;-80
2024/01/19 10:14:20;;;;;;;16.42;9.38;;;0.20;99.90;;;;;;5072234;28;20028;-83
2024/01/19 10:16:48;;;;;;;24.30;10.80;;;0.20;99.90;;;;;;5056165;28;20374;-79
2024/01/19 10:19:14;;;;;;;20.70;9.48;;;0.20;99.90;;;;;;5064971;28;20027;-78
2024/01/19 10:21:40;;;;;;;21.48;10.45;;;0.20;99.90;;;;;;5071283;28;20072;-78
2024/01/19 10:24:22;;;;;;;23.75;9.70;;;0.30;99.90;;;;;;5080935;28;20076;-80
2024/01/19 10:26:55;;;;;;;18.02;8.30;;;0.30;99.90;;;;;;5062794;28;20032;-79
2024/01/19 10:29:22;;;;;;;22.67;10.43;;;0.40;99.90;;;;;;5071550;28;20123;-78
2024/01/19 10:31:49;;;;;;;26.98;10.88;;;0.40;99.90;;;;;;5042466;28;20071;-81
2024/01/19 10:34:35;;;;;;;20.80;10.23;;;0.40;99.90;;;;;;5056689;28;20036;-78
2024/01/19 10:37:01;;;;;;;30.70;9.65;;;0.40;99.90;;;;;;5049625;28;20222;-79
2024/01/19 10:39:34;;;;;;;25.35;9.70;;;0.40;99.90;;;;;;5034207;28;20028;-78
2024/01/19 10:42:07;;;;;;;19.23;9.23;;;0.40;99.90;;;;;;5062924;28;20437;-78
2024/01/19 10:44:34;;;;;;;22.63;10.02;;;0.50;99.90;;;;;;5076531;28;20020;-79
2024/01/19 10:47:00;;;;;;;21.70;8.80;;;0.50;99.90;;;;;;5068661;28;20029;-78
2024/01/19 10:49:26;;;;;;;13.90;8.05;;;0.50;99.90;;;;;;5070817;28;20025;-80
2024/01/19 10:51:53;;;;;;;17.17;10.00;;;0.50;99.90;;;;;;5055693;28;20060;-82
2024/01/19 10:54:25;;;;;;;21.25;9.63;;;0.50;99.90;;;;;;5055878;28;20461;-78
2024/01/19 10:57:09;;;;;;;23.65;11.60;;;0.60;99.90;;;;;;5045850;28;20032;-78
2024/01/19 10:59:35;;;;;;;19.90;9.10;;;0.60;99.90;;;;;;5056077;28;20106;-77
2024/01/19 11:02:02;;;;;;;19.90;9.10;;;0.60;99.90;;;;;;5084261;28;20064;-77
2024/01/19 11:04:28;;;;;;;20.92;9.70;;;0.60;99.90;;;;;;5084154;28;20032;-79
2024/01/19 11:06:54;;;;;;;19.77;9.80;;;0.60;99.90;;;;;;5074510;28;20034;-78
2024/01/19 11:09:20;;;;;;;24.92;11.35;;;0.60;99.90;;;;;;5084695;28;20028;-78
2024/01/19 11:11:46;;;;;;;25.13;10.18;;;0.70;99.90;;;;;;5069860;28;20048;-78
2024/01/19 11:14:17;;;;;;;24.17;10.32;;;0.60;99.90;;;;;;5049682;28;20465;-78
2024/01/19 11:16:47;;;;;;;25.65;11.15;;;0.60;99.90;;;;;;5061469;28;20032;-80
2024/01/19 11:19:15;;;;;;;26.30;12.20;;;0.60;99.90;;;;;;5055208;28;20539;-80
2024/01/19 11:21:44;;;;;;;20.98;10.02;;;0.60;99.90;;;;;;5056324;28;20075;-79
2024/01/19 11:24:11;;;;;;;25.17;11.98;;;0.60;99.90;;;;;;5063964;28;20620;-78
2024/01/19 11:26:58;;;;;;;26.45;11.25;;;0.50;99.90;;;;;;5060792;28;20027;-78
2024/01/19 11:29:32;;;;;;;24.88;10.85;;;0.50;99.90;;;;;;5067624;28;20062;-77
2024/01/19 11:31:59;;;;;;;36.30;12.40;;;0.50;99.90;;;;;;5058378;28;20038;-78
2024/01/19 11:34:52;;;;;;;30.65;11.85;;;0.40;99.90;;;;;;5060834;28;20028;-78
2024/01/19 11:37:46;;;;;;;27.33;11.50;;;0.40;99.90;;;;;;5065901;28;20043;-82
2024/01/19 11:40:34;;;;;;;27.92;11.23;;;0.40;99.90;;;;;;5058510;28;20501;-80
2024/01/19 11:43:00;;;;;;;28.08;11.50;;;0.40;99.90;;;;;;5051085;28;20048;-78
2024/01/19 11:45:42;;;;;;;29.73;11.52;;;0.40;99.90;;;;;;5066846;28;20088;-80
2024/01/19 11:48:09;;;;;;;23.23;11.13;;;0.40;99.90;;;;;;5058355;28;20122;-81
2024/01/19 11:50:46;;;;;;;29.38;11.07;;;0.40;99.90;;;;;;5047780;28;20116;-81
2024/01/19 11:53:13;;;;;;;34.08;12.18;;;0.40;99.90;;;;;;5053376;28;20025;-79
2024/01/19 11:55:48;;;;;;;24.50;12.63;;;0.40;99.90;;;;;;5046553;28;20501;-80
2024/01/19 11:58:40;;;;;;;27.40;11.82;;;0.40;99.90;;;;;;5062862;28;20956;-77
2024/01/19 12:01:07;;;;;;;32.53;12.18;;;0.50;99.90;;;;;;5073935;28;20040;-79
2024/01/19 12:03:33;;;;;;;28.25;12.27;;;0.50;99.90;;;;;;5087179;28;20040;-79
2024/01/19 12:06:04;;;;;;;37.00;12.85;;;0.50;99.90;;;;;;5058801;28;20029;-78
2024/01/19 12:08:33;;;;;;;34.33;12.32;;;0.40;99.90;;;;;;5059577;28;20039;-80
2024/01/19 12:11:06;;;;;;;31.95;12.60;;;0.50;99.90;;;;;;5061256;28;20059;-78
2024/01/19 12:13:36;;;;;;;36.75;15.02;;;0.50;99.90;;;;;;5057718;28;20500;-77
2024/01/19 12:16:05;;;;;;;33.03;13.23;;;0.50;99.90;;;;;;5071073;28;20024;-78
2024/01/19 12:18:33;;;;;;;29.30;12.55;;;0.50;99.90;;;;;;5042450;28;20028;-78
2024/01/19 12:21:01;;;;;;;28.73;11.95;;;0.60;99.90;;;;;;5072413;28;20458;-79
2024/01/19 12:23:29;;;;;;;30.35;11.60;;;0.60;99.90;;;;;;5070858;28;20043;-79
2024/01/19 12:26:03;;;;;;;29.63;13.38;;;0.60;99.90;;;;;;5069687;28;20043;-77
2024/01/19 12:28:31;;;;;;;38.90;12.43;;;0.60;99.90;;;;;;5074584;28;20366;-79
2024/01/19 12:30:57;;;;;;;33.28;13.40;;;0.60;99.90;;;;;;5077928;28;20032;-78
2024/01/19 12:33:26;;;;;;;29.15;13.40;;;0.60;99.90;;;;;;5067461;28;20021;-77
2024/01/19 12:36:13;;;;;;;28.83;12.45;;;0.60;99.90;;;;;;5064711;28;20039;-79
2024/01/19 12:38:40;;;;;;;30.92;13.20;;;0.60;99.90;;;;;;5057584;28;20029;-77